sensor_id;sensor_type;location;lat;lon;timestamp;temperature;humidity
74155;DHT22;62509;46.248;6.018;2022-09-09T00:00:31;24.40;36.40
74155;DHT22;62509;46.248;6.018;2022-09-09T00:05:37;24.50;36.70
74155;DHT22;62509;46.248;6.018;2022-09-09T00:10:41;24.40;36.80
74155;DHT22;62509;46.248;6.018;2022-09-09T00:15:49;24.40;37.10
74155;DHT22;62509;46.248;6.018;2022-09-09T00:20:57;24.40;37.20
74155;DHT22;62509;46.248;6.018;2022-09-09T00:26:02;24.40;37.40
74155;DHT22;62509;46.248;6.018;2022-09-09T00:31:11;24.40;37.50
74155;DHT22;62509;46.248;6.018;2022-09-09T00:36:14;24.40;37.40
74155;DHT22;62509;46.248;6.018;2022-09-09T00:41:20;24.40;37.40
74155;DHT22;62509;46.248;6.018;2022-09-09T00:46:40;24.40;37.60
74155;DHT22;62509;46.248;6.018;2022-09-09T00:51:46;24.40;37.60
74155;DHT22;62509;46.248;6.018;2022-09-09T00:56:53;24.40;37.80
74155;DHT22;62509;46.248;6.018;2022-09-09T01:02:01;24.40;37.80
74155;DHT22;62509;46.248;6.018;2022-09-09T01:07:07;24.30;37.80
74155;DHT22;62509;46.248;6.018;2022-09-09T01:12:14;24.40;38.00
74155;DHT22;62509;46.248;6.018;2022-09-09T01:17:19;24.40;37.90
74155;DHT22;62509;46.248;6.018;2022-09-09T01:22:26;24.30;37.90
74155;DHT22;62509;46.248;6.018;2022-09-09T01:27:34;24.30;38.00
74155;DHT22;62509;46.248;6.018;2022-09-09T01:32:39;24.40;38.10
74155;DHT22;62509;46.248;6.018;2022-09-09T01:37:42;24.30;38.00
74155;DHT22;62509;46.248;6.018;2022-09-09T01:42:46;24.30;38.10
74155;DHT22;62509;46.248;6.018;2022-09-09T01:47:49;24.30;38.20
74155;DHT22;62509;46.248;6.018;2022-09-09T01:52:53;24.30;38.20
74155;DHT22;62509;46.248;6.018;2022-09-09T01:58:03;24.30;38.30
74155;DHT22;62509;46.248;6.018;2022-09-09T02:03:08;24.30;38.30
74155;DHT22;62509;46.248;6.018;2022-09-09T02:08:17;24.30;38.40
74155;DHT22;62509;46.248;6.018;2022-09-09T02:13:22;24.30;38.40
74155;DHT22;62509;46.248;6.018;2022-09-09T02:18:27;24.30;38.40
74155;DHT22;62509;46.248;6.018;2022-09-09T02:23:30;24.30;38.50
74155;DHT22;62509;46.248;6.018;2022-09-09T02:28:36;24.30;38.50
74155;DHT22;62509;46.248;6.018;2022-09-09T02:33:40;24.30;38.50
74155;DHT22;62509;46.248;6.018;2022-09-09T02:38:45;24.30;38.50
74155;DHT22;62509;46.248;6.018;2022-09-09T02:43:53;24.30;38.60
74155;DHT22;62509;46.248;6.018;2022-09-09T02:48:58;24.30;38.60
74155;DHT22;62509;46.248;6.018;2022-09-09T02:54:04;24.30;38.60
74155;DHT22;62509;46.248;6.018;2022-09-09T02:59:13;24.30;38.60
74155;DHT22;62509;46.248;6.018;2022-09-09T03:04:15;24.20;38.70
74155;DHT22;62509;46.248;6.018;2022-09-09T03:09:18;24.20;38.70
74155;DHT22;62509;46.248;6.018;2022-09-09T03:14:22;24.30;38.70
74155;DHT22;62509;46.248;6.018;2022-09-09T03:19:26;24.20;38.60
74155;DHT22;62509;46.248;6.018;2022-09-09T03:24:31;24.20;38.70
74155;DHT22;62509;46.248;6.018;2022-09-09T03:29:35;24.20;38.70
74155;DHT22;62509;46.248;6.018;2022-09-09T03:34:38;24.30;38.70
74155;DHT22;62509;46.248;6.018;2022-09-09T03:39:41;24.20;38.70
74155;DHT22;62509;46.248;6.018;2022-09-09T03:44:46;24.20;38.80
74155;DHT22;62509;46.248;6.018;2022-09-09T03:49:51;24.20;38.80
74155;DHT22;62509;46.248;6.018;2022-09-09T03:54:54;24.20;38.80
74155;DHT22;62509;46.248;6.018;2022-09-09T03:59:59;24.20;38.80
74155;DHT22;62509;46.248;6.018;2022-09-09T04:05:02;24.20;38.80
74155;DHT22;62509;46.248;6.018;2022-09-09T04:10:06;24.20;38.80
74155;DHT22;62509;46.248;6.018;2022-09-09T04:15:11;24.20;38.80
74155;DHT22;62509;46.248;6.018;2022-09-09T04:20:14;24.20;38.90
74155;DHT22;62509;46.248;6.018;2022-09-09T04:25:16;24.20;38.90
74155;DHT22;62509;46.248;6.018;2022-09-09T04:30:20;24.20;38.90
74155;DHT22;62509;46.248;6.018;2022-09-09T04:35:23;24.20;38.90
74155;DHT22;62509;46.248;6.018;2022-09-09T04:40:26;24.20;38.90
74155;DHT22;62509;46.248;6.018;2022-09-09T04:45:31;24.10;38.90
74155;DHT22;62509;46.248;6.018;2022-09-09T04:50:35;24.20;38.90
74155;DHT22;62509;46.248;6.018;2022-09-09T04:55:38;24.20;39.00
74155;DHT22;62509;46.248;6.018;2022-09-09T05:00:42;24.10;39.00
74155;DHT22;62509;46.248;6.018;2022-09-09T05:05:45;24.10;39.00
74155;DHT22;62509;46.248;6.018;2022-09-09T05:10:48;24.10;39.00
74155;DHT22;62509;46.248;6.018;2022-09-09T05:15:53;24.10;39.00
74155;DHT22;62509;46.248;6.018;2022-09-09T05:20:59;24.20;39.10
74155;DHT22;62509;46.248;6.018;2022-09-09T05:26:03;24.10;39.00
74155;DHT22;62509;46.248;6.018;2022-09-09T05:31:08;24.10;39.00
74155;DHT22;62509;46.248;6.018;2022-09-09T05:36:13;24.10;39.10
74155;DHT22;62509;46.248;6.018;2022-09-09T05:41:16;24.10;39.00
74155;DHT22;62509;46.248;6.018;2022-09-09T05:46:21;24.10;39.00
74155;DHT22;62509;46.248;6.018;2022-09-09T05:51:26;24.10;39.00
74155;DHT22;62509;46.248;6.018;2022-09-09T05:56:29;24.10;39.00
74155;DHT22;62509;46.248;6.018;2022-09-09T06:01:36;24.10;39.00
74155;DHT22;62509;46.248;6.018;2022-09-09T06:06:42;24.10;39.00
74155;DHT22;62509;46.248;6.018;2022-09-09T06:11:44;24.10;39.00
74155;DHT22;62509;46.248;6.018;2022-09-09T06:16:49;24.10;39.00
74155;DHT22;62509;46.248;6.018;2022-09-09T06:21:52;24.10;39.00
74155;DHT22;62509;46.248;6.018;2022-09-09T06:26:54;24.10;39.00
74155;DHT22;62509;46.248;6.018;2022-09-09T06:32:00;24.10;39.00
74155;DHT22;62509;46.248;6.018;2022-09-09T06:37:03;24.10;38.90
74155;DHT22;62509;46.248;6.018;2022-09-09T06:42:07;24.10;38.90
74155;DHT22;62509;46.248;6.018;2022-09-09T06:47:12;24.10;38.70
74155;DHT22;62509;46.248;6.018;2022-09-09T06:52:15;24.10;38.60
74155;DHT22;62509;46.248;6.018;2022-09-09T06:57:19;24.10;38.40
74155;DHT22;62509;46.248;6.018;2022-09-09T07:02:40;24.10;38.20
74155;DHT22;62509;46.248;6.018;2022-09-09T07:07:42;24.20;38.10
74155;DHT22;62509;46.248;6.018;2022-09-09T07:12:49;24.20;38.00
74155;DHT22;62509;46.248;6.018;2022-09-09T07:17:54;24.20;38.00
74155;DHT22;62509;46.248;6.018;2022-09-09T07:22:57;24.20;37.70
74155;DHT22;62509;46.248;6.018;2022-09-09T07:28:00;24.20;37.70
74155;DHT22;62509;46.248;6.018;2022-09-09T07:33:06;24.20;38.00
74155;DHT22;62509;46.248;6.018;2022-09-09T07:38:09;24.20;37.10
74155;DHT22;62509;46.248;6.018;2022-09-09T07:43:12;24.30;37.00
74155;DHT22;62509;46.248;6.018;2022-09-09T07:48:19;24.20;36.70
74155;DHT22;62509;46.248;6.018;2022-09-09T07:53:22;24.20;36.60
74155;DHT22;62509;46.248;6.018;2022-09-09T07:58:25;24.20;36.30
74155;DHT22;62509;46.248;6.018;2022-09-09T08:03:29;24.20;36.20
74155;DHT22;62509;46.248;6.018;2022-09-09T08:08:32;24.30;36.10
74155;DHT22;62509;46.248;6.018;2022-09-09T08:13:35;24.30;35.90
74155;DHT22;62509;46.248;6.018;2022-09-09T08:18:40;24.30;35.70
74155;DHT22;62509;46.248;6.018;2022-09-09T08:23:43;24.30;35.60
74155;DHT22;62509;46.248;6.018;2022-09-09T08:28:47;24.30;35.40
74155;DHT22;62509;46.248;6.018;2022-09-09T08:33:51;24.30;35.40
74155;DHT22;62509;46.248;6.018;2022-09-09T08:38:56;24.30;35.20
74155;DHT22;62509;46.248;6.018;2022-09-09T08:44:00;24.30;35.20
74155;DHT22;62509;46.248;6.018;2022-09-09T08:49:07;24.30;34.90
74155;DHT22;62509;46.248;6.018;2022-09-09T08:54:13;24.30;34.80
74155;DHT22;62509;46.248;6.018;2022-09-09T08:59:36;24.40;34.70
74155;DHT22;62509;46.248;6.018;2022-09-09T09:04:44;24.40;34.60
74155;DHT22;62509;46.248;6.018;2022-09-09T09:09:51;24.40;34.40
74155;DHT22;62509;46.248;6.018;2022-09-09T09:14:55;24.40;34.20
74155;DHT22;62509;46.248;6.018;2022-09-09T09:20:01;24.40;34.10
74155;DHT22;62509;46.248;6.018;2022-09-09T09:25:08;24.40;33.80
74155;DHT22;62509;46.248;6.018;2022-09-09T09:30:15;24.40;33.70
74155;DHT22;62509;46.248;6.018;2022-09-09T09:35:30;24.40;33.60
74155;DHT22;62509;46.248;6.018;2022-09-09T09:40:37;24.50;33.50
74155;DHT22;62509;46.248;6.018;2022-09-09T09:45:51;24.50;33.40
74155;DHT22;62509;46.248;6.018;2022-09-09T09:51:15;24.50;33.30
74155;DHT22;62509;46.248;6.018;2022-09-09T09:56:26;24.50;33.10
74155;DHT22;62509;46.248;6.018;2022-09-09T10:01:30;24.50;33.10
74155;DHT22;62509;46.248;6.018;2022-09-09T10:06:36;24.50;32.90
74155;DHT22;62509;46.248;6.018;2022-09-09T10:11:43;24.50;33.40
74155;DHT22;62509;46.248;6.018;2022-09-09T10:16:52;24.50;32.70
74155;DHT22;62509;46.248;6.018;2022-09-09T10:22:08;24.50;32.60
74155;DHT22;62509;46.248;6.018;2022-09-09T10:27:15;24.50;32.50
74155;DHT22;62509;46.248;6.018;2022-09-09T10:32:31;24.50;32.50
74155;DHT22;62509;46.248;6.018;2022-09-09T10:37:40;24.50;32.40
74155;DHT22;62509;46.248;6.018;2022-09-09T10:42:45;24.50;32.20
74155;DHT22;62509;46.248;6.018;2022-09-09T10:47:51;24.60;32.10
74155;DHT22;62509;46.248;6.018;2022-09-09T10:53:02;24.50;32.10
74155;DHT22;62509;46.248;6.018;2022-09-09T10:58:12;24.50;31.90
74155;DHT22;62509;46.248;6.018;2022-09-09T11:03:17;24.50;31.90
74155;DHT22;62509;46.248;6.018;2022-09-09T11:08:23;24.50;31.80
74155;DHT22;62509;46.248;6.018;2022-09-09T11:13:29;24.50;31.70
74155;DHT22;62509;46.248;6.018;2022-09-09T11:18:35;24.60;31.80
74155;DHT22;62509;46.248;6.018;2022-09-09T11:23:42;24.50;31.60
74155;DHT22;62509;46.248;6.018;2022-09-09T11:28:52;24.60;31.60
74155;DHT22;62509;46.248;6.018;2022-09-09T11:34:12;24.60;31.60
74155;DHT22;62509;46.248;6.018;2022-09-09T11:44:45;24.60;31.40
74155;DHT22;62509;46.248;6.018;2022-09-09T11:49:48;24.60;31.40
74155;DHT22;62509;46.248;6.018;2022-09-09T11:54:51;24.60;31.30
74155;DHT22;62509;46.248;6.018;2022-09-09T11:59:55;24.60;31.40
74155;DHT22;62509;46.248;6.018;2022-09-09T12:04:59;24.60;31.30
74155;DHT22;62509;46.248;6.018;2022-09-09T12:10:04;24.60;31.30
74155;DHT22;62509;46.248;6.018;2022-09-09T12:15:26;24.60;31.30
74155;DHT22;62509;46.248;6.018;2022-09-09T12:20:33;24.60;31.30
74155;DHT22;62509;46.248;6.018;2022-09-09T12:25:41;24.60;31.20
74155;DHT22;62509;46.248;6.018;2022-09-09T12:30:52;24.60;31.30
74155;DHT22;62509;46.248;6.018;2022-09-09T12:35:58;24.60;31.30
74155;DHT22;62509;46.248;6.018;2022-09-09T12:41:02;24.60;31.30
74155;DHT22;62509;46.248;6.018;2022-09-09T12:46:07;24.60;31.30
74155;DHT22;62509;46.248;6.018;2022-09-09T12:51:16;24.60;31.30
74155;DHT22;62509;46.248;6.018;2022-09-09T12:56:21;24.60;31.30
74155;DHT22;62509;46.248;6.018;2022-09-09T13:01:26;24.60;31.40
74155;DHT22;62509;46.248;6.018;2022-09-09T13:06:30;24.60;31.30
74155;DHT22;62509;46.248;6.018;2022-09-09T13:11:34;24.60;31.40
74155;DHT22;62509;46.248;6.018;2022-09-09T13:16:40;24.70;31.40
74155;DHT22;62509;46.248;6.018;2022-09-09T13:21:43;24.60;31.50
74155;DHT22;62509;46.248;6.018;2022-09-09T13:26:53;24.60;31.50
74155;DHT22;62509;46.248;6.018;2022-09-09T13:32:04;24.70;31.60
74155;DHT22;62509;46.248;6.018;2022-09-09T13:37:16;24.70;31.70
74155;DHT22;62509;46.248;6.018;2022-09-09T13:42:24;24.70;31.70
74155;DHT22;62509;46.248;6.018;2022-09-09T13:47:30;24.70;31.70
74155;DHT22;62509;46.248;6.018;2022-09-09T13:52:33;24.70;31.70
74155;DHT22;62509;46.248;6.018;2022-09-09T13:57:37;24.70;31.70
74155;DHT22;62509;46.248;6.018;2022-09-09T14:02:41;24.70;31.80
74155;DHT22;62509;46.248;6.018;2022-09-09T14:07:45;24.70;31.80
74155;DHT22;62509;46.248;6.018;2022-09-09T14:12:53;24.70;31.80
74155;DHT22;62509;46.248;6.018;2022-09-09T14:17:57;24.70;31.80
74155;DHT22;62509;46.248;6.018;2022-09-09T14:23:00;24.70;31.80
74155;DHT22;62509;46.248;6.018;2022-09-09T14:28:04;24.70;31.80
74155;DHT22;62509;46.248;6.018;2022-09-09T14:33:09;24.70;31.80
74155;DHT22;62509;46.248;6.018;2022-09-09T14:38:12;24.70;31.90
74155;DHT22;62509;46.248;6.018;2022-09-09T14:43:19;24.70;31.90
74155;DHT22;62509;46.248;6.018;2022-09-09T14:48:24;24.70;31.90
74155;DHT22;62509;46.248;6.018;2022-09-09T14:53:26;24.70;31.80
74155;DHT22;62509;46.248;6.018;2022-09-09T14:58:30;24.80;31.90
74155;DHT22;62509;46.248;6.018;2022-09-09T15:03:34;24.80;31.80
74155;DHT22;62509;46.248;6.018;2022-09-09T15:08:39;24.80;31.90
74155;DHT22;62509;46.248;6.018;2022-09-09T15:13:43;24.90;32.00
74155;DHT22;62509;46.248;6.018;2022-09-09T15:18:50;24.90;31.90
74155;DHT22;62509;46.248;6.018;2022-09-09T15:23:54;24.90;31.90
74155;DHT22;62509;46.248;6.018;2022-09-09T15:28:57;24.90;31.90
74155;DHT22;62509;46.248;6.018;2022-09-09T15:34:03;24.90;31.90
74155;DHT22;62509;46.248;6.018;2022-09-09T15:39:06;25.00;31.90
74155;DHT22;62509;46.248;6.018;2022-09-09T15:44:11;25.00;32.00
74155;DHT22;62509;46.248;6.018;2022-09-09T15:49:16;25.00;31.90
74155;DHT22;62509;46.248;6.018;2022-09-09T15:54:20;25.00;31.80
74155;DHT22;62509;46.248;6.018;2022-09-09T15:59:25;25.00;31.80
74155;DHT22;62509;46.248;6.018;2022-09-09T16:04:30;25.10;31.80
74155;DHT22;62509;46.248;6.018;2022-09-09T16:09:33;25.10;31.70
74155;DHT22;62509;46.248;6.018;2022-09-09T16:14:36;25.10;31.60
74155;DHT22;62509;46.248;6.018;2022-09-09T16:19:41;25.10;31.50
74155;DHT22;62509;46.248;6.018;2022-09-09T16:24:44;25.10;31.60
74155;DHT22;62509;46.248;6.018;2022-09-09T16:29:47;25.10;31.50
74155;DHT22;62509;46.248;6.018;2022-09-09T16:34:52;25.10;31.60
74155;DHT22;62509;46.248;6.018;2022-09-09T16:39:54;25.10;31.70
74155;DHT22;62509;46.248;6.018;2022-09-09T16:44:57;25.10;31.70
74155;DHT22;62509;46.248;6.018;2022-09-09T16:50:02;25.10;31.80
74155;DHT22;62509;46.248;6.018;2022-09-09T16:55:05;25.10;31.80
74155;DHT22;62509;46.248;6.018;2022-09-09T17:00:08;25.10;31.70
74155;DHT22;62509;46.248;6.018;2022-09-09T17:05:13;25.10;31.70
74155;DHT22;62509;46.248;6.018;2022-09-09T17:10:15;25.10;31.60
74155;DHT22;62509;46.248;6.018;2022-09-09T17:15:18;25.10;31.50
74155;DHT22;62509;46.248;6.018;2022-09-09T17:20:24;25.10;31.60
74155;DHT22;62509;46.248;6.018;2022-09-09T17:25:26;25.10;31.60
74155;DHT22;62509;46.248;6.018;2022-09-09T17:30:29;25.00;31.70
74155;DHT22;62509;46.248;6.018;2022-09-09T17:35:34;25.00;31.70
74155;DHT22;62509;46.248;6.018;2022-09-09T17:40:37;25.00;31.80
74155;DHT22;62509;46.248;6.018;2022-09-09T17:45:39;25.00;31.90
74155;DHT22;62509;46.248;6.018;2022-09-09T17:50:44;25.00;31.80
74155;DHT22;62509;46.248;6.018;2022-09-09T17:55:47;25.00;31.80
74155;DHT22;62509;46.248;6.018;2022-09-09T18:00:53;25.00;31.70
74155;DHT22;62509;46.248;6.018;2022-09-09T18:06:00;25.00;31.70
74155;DHT22;62509;46.248;6.018;2022-09-09T18:11:04;24.90;31.70
74155;DHT22;62509;46.248;6.018;2022-09-09T18:16:07;24.90;31.80
74155;DHT22;62509;46.248;6.018;2022-09-09T18:21:12;24.90;31.90
74155;DHT22;62509;46.248;6.018;2022-09-09T18:26:17;24.90;32.00
74155;DHT22;62509;46.248;6.018;2022-09-09T18:31:22;24.90;32.10
74155;DHT22;62509;46.248;6.018;2022-09-09T18:36:27;24.90;32.20
74155;DHT22;62509;46.248;6.018;2022-09-09T18:41:32;24.90;32.30
74155;DHT22;62509;46.248;6.018;2022-09-09T18:46:35;24.90;32.50
74155;DHT22;62509;46.248;6.018;2022-09-09T18:51:42;24.90;32.50
74155;DHT22;62509;46.248;6.018;2022-09-09T18:56:45;24.90;32.50
74155;DHT22;62509;46.248;6.018;2022-09-09T19:01:49;24.90;32.70
74155;DHT22;62509;46.248;6.018;2022-09-09T19:06:53;24.90;32.70
74155;DHT22;62509;46.248;6.018;2022-09-09T19:11:59;24.90;32.80
74155;DHT22;62509;46.248;6.018;2022-09-09T19:17:02;24.80;32.90
74155;DHT22;62509;46.248;6.018;2022-09-09T19:22:06;24.80;33.00
74155;DHT22;62509;46.248;6.018;2022-09-09T19:27:12;24.80;33.00
74155;DHT22;62509;46.248;6.018;2022-09-09T19:32:15;24.80;33.10
74155;DHT22;62509;46.248;6.018;2022-09-09T19:37:40;24.90;33.20
74155;DHT22;62509;46.248;6.018;2022-09-09T19:42:43;24.80;33.30
74155;DHT22;62509;46.248;6.018;2022-09-09T19:47:45;24.80;33.50
74155;DHT22;62509;46.248;6.018;2022-09-09T19:52:50;24.70;33.60
74155;DHT22;62509;46.248;6.018;2022-09-09T19:57:53;24.70;33.70
74155;DHT22;62509;46.248;6.018;2022-09-09T20:02:56;24.70;33.90
74155;DHT22;62509;46.248;6.018;2022-09-09T20:08:20;24.70;34.00
74155;DHT22;62509;46.248;6.018;2022-09-09T20:13:23;24.70;34.10
74155;DHT22;62509;46.248;6.018;2022-09-09T20:18:27;24.80;34.30
74155;DHT22;62509;46.248;6.018;2022-09-09T20:23:33;24.70;34.40
74155;DHT22;62509;46.248;6.018;2022-09-09T20:28:36;24.70;34.60
74155;DHT22;62509;46.248;6.018;2022-09-09T20:33:39;24.70;34.70
74155;DHT22;62509;46.248;6.018;2022-09-09T20:38:45;24.70;35.40
74155;DHT22;62509;46.248;6.018;2022-09-09T20:43:49;24.70;35.00
74155;DHT22;62509;46.248;6.018;2022-09-09T20:48:52;24.70;35.00
74155;DHT22;62509;46.248;6.018;2022-09-09T20:54:05;24.70;35.20
74155;DHT22;62509;46.248;6.018;2022-09-09T20:59:10;24.70;35.40
74155;DHT22;62509;46.248;6.018;2022-09-09T21:04:14;24.70;36.10
74155;DHT22;62509;46.248;6.018;2022-09-09T21:09:19;24.70;35.60
74155;DHT22;62509;46.248;6.018;2022-09-09T21:14:23;24.70;35.80
74155;DHT22;62509;46.248;6.018;2022-09-09T21:19:27;24.70;35.80
74155;DHT22;62509;46.248;6.018;2022-09-09T21:24:32;24.70;35.90
74155;DHT22;62509;46.248;6.018;2022-09-09T21:29:34;24.70;35.90
74155;DHT22;62509;46.248;6.018;2022-09-09T21:34:37;24.70;36.00
74155;DHT22;62509;46.248;6.018;2022-09-09T21:39:43;24.70;36.20
74155;DHT22;62509;46.248;6.018;2022-09-09T21:44:48;24.70;36.30
74155;DHT22;62509;46.248;6.018;2022-09-09T21:49:51;24.60;36.30
74155;DHT22;62509;46.248;6.018;2022-09-09T21:54:55;24.70;36.50
74155;DHT22;62509;46.248;6.018;2022-09-09T21:59:58;24.60;36.50
74155;DHT22;62509;46.248;6.018;2022-09-09T22:05:01;24.60;36.60
74155;DHT22;62509;46.248;6.018;2022-09-09T22:10:06;24.60;36.70
74155;DHT22;62509;46.248;6.018;2022-09-09T22:15:09;24.60;36.70
74155;DHT22;62509;46.248;6.018;2022-09-09T22:20:12;24.60;36.80
74155;DHT22;62509;46.248;6.018;2022-09-09T22:25:16;24.60;36.90
74155;DHT22;62509;46.248;6.018;2022-09-09T22:30:19;24.60;36.90
74155;DHT22;62509;46.248;6.018;2022-09-09T22:35:22;24.60;37.00
74155;DHT22;62509;46.248;6.018;2022-09-09T22:40:26;24.60;37.00
74155;DHT22;62509;46.248;6.018;2022-09-09T22:45:29;24.60;37.10
74155;DHT22;62509;46.248;6.018;2022-09-09T22:50:33;24.60;37.20
74155;DHT22;62509;46.248;6.018;2022-09-09T22:55:52;24.60;37.20
74155;DHT22;62509;46.248;6.018;2022-09-09T23:00:56;24.60;37.20
74155;DHT22;62509;46.248;6.018;2022-09-09T23:06:00;24.60;37.20
74155;DHT22;62509;46.248;6.018;2022-09-09T23:11:06;24.50;37.20
74155;DHT22;62509;46.248;6.018;2022-09-09T23:16:11;24.60;37.40
74155;DHT22;62509;46.248;6.018;2022-09-09T23:21:14;24.60;37.40
74155;DHT22;62509;46.248;6.018;2022-09-09T23:26:18;24.60;37.40
74155;DHT22;62509;46.248;6.018;2022-09-09T23:31:21;24.50;37.40
74155;DHT22;62509;46.248;6.018;2022-09-09T23:36:25;24.50;37.50
74155;DHT22;62509;46.248;6.018;2022-09-09T23:41:31;24.50;37.50
74155;DHT22;62509;46.248;6.018;2022-09-09T23:46:35;24.50;37.60
74155;DHT22;62509;46.248;6.018;2022-09-09T23:51:38;24.50;37.60
74155;DHT22;62509;46.248;6.018;2022-09-09T23:56:43;24.50;37.70
